createdAt,value
2018-01-06T00:01:03.855Z,9.60
2018-01-06T00:03:31.411Z,9.70
2018-01-06T00:05:58.991Z,9.70
2018-01-06T00:08:27.328Z,9.60
2018-01-06T00:10:54.884Z,9.60
2018-01-06T00:13:22.797Z,9.60
2018-01-06T00:15:51.108Z,9.60
2018-01-06T00:18:18.673Z,9.60
2018-01-06T00:20:46.264Z,9.60
2018-01-06T00:23:13.798Z,9.60
2018-01-06T00:25:41.388Z,9.50
2018-01-06T00:28:08.935Z,9.50
2018-01-06T00:30:36.561Z,9.50
2018-01-06T00:33:04.140Z,9.50
2018-01-06T00:35:31.674Z,9.50
2018-01-06T00:37:59.239Z,9.50
2018-01-06T00:40:26.769Z,9.40
2018-01-06T00:42:54.473Z,9.40
2018-01-06T00:45:22.875Z,9.40
2018-01-06T00:47:50.445Z,9.40
2018-01-06T00:50:18.019Z,9.40
2018-01-06T00:52:45.577Z,9.40
2018-01-06T00:55:13.108Z,9.30
2018-01-06T00:57:40.668Z,9.30
2018-01-06T01:00:08.295Z,9.30
2018-01-06T01:02:35.854Z,9.30
2018-01-06T01:05:04.044Z,9.30
2018-01-06T01:07:31.596Z,9.20
2018-01-06T01:09:59.179Z,9.10
2018-01-06T01:12:26.797Z,9.20
2018-01-06T01:14:54.365Z,9.20
2018-01-06T01:17:22.659Z,9.20
2018-01-06T01:19:50.273Z,9.20
2018-01-06T01:22:17.820Z,9.20
2018-01-06T01:24:45.387Z,9.10
2018-01-06T01:27:12.926Z,9.00
2018-01-06T01:29:40.485Z,9.10
2018-01-06T01:32:08.099Z,9.10
2018-01-06T01:34:35.654Z,9.10
2018-01-06T01:37:03.204Z,9.10
2018-01-06T01:39:31.548Z,9.20
2018-01-06T01:41:59.102Z,9.20
2018-01-06T01:44:26.643Z,9.20
2018-01-06T01:46:54.200Z,9.10
2018-01-06T01:49:22.713Z,9.00
2018-01-06T01:51:50.240Z,9.00
2018-01-06T01:54:17.817Z,9.00
2018-01-06T01:56:45.404Z,9.00
2018-01-06T01:59:12.928Z,8.90
2018-01-06T02:01:40.520Z,8.90
2018-01-06T02:04:08.279Z,8.80
2018-01-06T02:06:35.875Z,8.80
2018-01-06T02:09:04.193Z,8.90
2018-01-06T02:11:31.743Z,8.90
2018-01-06T02:13:59.353Z,8.90
2018-01-06T02:16:27.659Z,9.00
2018-01-06T02:18:55.290Z,9.00
2018-01-06T02:21:23.519Z,9.00
2018-01-06T02:23:51.135Z,9.00
2018-01-06T02:26:18.673Z,9.00
2018-01-06T02:28:46.699Z,9.00
2018-01-06T02:31:14.905Z,9.00
2018-01-06T02:33:42.457Z,9.00
2018-01-06T02:36:10.073Z,8.90
2018-01-06T02:38:37.605Z,8.90
2018-01-06T02:41:05.128Z,8.90
2018-01-06T02:43:32.698Z,8.90
2018-01-06T02:46:00.243Z,8.80
2018-01-06T02:48:27.822Z,8.80
2018-01-06T02:50:55.366Z,8.90
2018-01-06T02:53:22.928Z,8.90
2018-01-06T02:55:50.446Z,8.90
2018-01-06T02:58:18.003Z,9.00
2018-01-06T03:00:46.377Z,9.00
2018-01-06T03:03:13.965Z,9.00
2018-01-06T03:05:41.570Z,9.00
2018-01-06T03:08:09.168Z,9.00
2018-01-06T03:10:37.517Z,9.00
2018-01-06T03:13:05.999Z,9.00
2018-01-06T03:15:33.538Z,9.00
2018-01-06T03:18:01.120Z,9.00
2018-01-06T03:20:28.640Z,9.00
2018-01-06T03:22:56.837Z,9.10
2018-01-06T03:25:24.361Z,9.10
2018-01-06T03:27:51.975Z,9.10
2018-01-06T03:30:19.781Z,9.10
2018-01-06T03:32:47.313Z,9.10
2018-01-06T03:35:14.923Z,9.10
2018-01-06T03:37:42.511Z,9.10
2018-01-06T03:40:10.038Z,9.10
2018-01-06T03:42:37.607Z,9.10
2018-01-06T03:45:05.848Z,9.10
2018-01-06T03:47:34.153Z,9.10
2018-01-06T03:50:02.469Z,9.10
2018-01-06T03:52:30.318Z,9.10
2018-01-06T03:54:57.878Z,9.10
2018-01-06T03:57:25.446Z,9.00
2018-01-06T03:59:52.981Z,9.00
2018-01-06T04:02:21.527Z,9.00
2018-01-06T04:04:49.153Z,9.00
2018-01-06T04:07:17.469Z,9.00
2018-01-06T04:09:45.044Z,9.00
2018-01-06T04:12:12.597Z,9.00
2018-01-06T04:14:40.155Z,9.00
2018-01-06T04:17:07.791Z,9.00
2018-01-06T04:19:35.315Z,9.00
2018-01-06T04:22:02.921Z,9.00
2018-01-06T04:24:30.482Z,9.00
2018-01-06T04:26:58.074Z,9.00
2018-01-06T04:29:25.599Z,9.00
2018-01-06T04:31:54.207Z,9.00
2018-01-06T04:34:22.615Z,9.00
2018-01-06T04:36:50.170Z,9.00
2018-01-06T04:39:18.518Z,8.90
2018-01-06T04:41:46.102Z,8.90
2018-01-06T04:44:13.727Z,8.90
2018-01-06T04:46:42.051Z,8.90
2018-01-06T04:49:09.639Z,8.90
2018-01-06T04:51:37.221Z,8.80
2018-01-06T04:54:05.558Z,8.80
2018-01-06T04:56:33.120Z,8.80
2018-01-06T04:59:00.701Z,8.80
2018-01-06T05:01:28.270Z,8.80
2018-01-06T05:03:55.805Z,8.80
2018-01-06T05:06:23.336Z,8.70
2018-01-06T05:08:51.024Z,8.70
2018-01-06T05:11:18.549Z,8.70
2018-01-06T05:13:46.147Z,8.70
2018-01-06T05:16:14.450Z,8.70
2018-01-06T05:18:41.994Z,8.70
2018-01-06T05:21:09.607Z,8.70
2018-01-06T05:23:37.169Z,8.70
2018-01-06T05:26:04.707Z,8.70
2018-01-06T05:28:33.059Z,8.70
2018-01-06T05:31:00.612Z,8.70
2018-01-06T05:33:28.158Z,8.70
2018-01-06T05:35:56.490Z,8.70
2018-01-06T05:38:24.032Z,8.70
2018-01-06T05:40:52.410Z,8.70
2018-01-06T05:43:19.998Z,8.70
2018-01-06T05:45:48.349Z,8.70
2018-01-06T05:48:15.938Z,8.70
2018-01-06T05:50:43.486Z,8.70
2018-01-06T05:53:11.062Z,8.60
2018-01-06T05:55:38.633Z,8.60
2018-01-06T05:58:06.217Z,8.60
2018-01-06T06:00:33.740Z,8.60
2018-01-06T06:03:01.361Z,8.60
2018-01-06T06:05:29.699Z,8.60
2018-01-06T06:07:57.292Z,8.60
2018-01-06T06:10:24.862Z,8.50
2018-01-06T06:12:53.038Z,8.60
2018-01-06T06:15:22.008Z,8.50
2018-01-06T06:17:49.724Z,8.50
2018-01-06T06:20:17.271Z,8.50
2018-01-06T06:22:44.842Z,8.60
2018-01-06T06:25:13.264Z,8.60
2018-01-06T06:27:40.832Z,8.60
2018-01-06T06:30:08.564Z,8.50
2018-01-06T06:32:36.137Z,8.50
2018-01-06T06:35:04.975Z,8.50
2018-01-06T06:37:32.609Z,8.50
2018-01-06T06:40:00.172Z,8.50
2018-01-06T06:42:28.491Z,8.50
2018-01-06T06:44:56.029Z,8.40
2018-01-06T06:47:23.692Z,8.50
2018-01-06T06:49:51.248Z,8.50
2018-01-06T06:52:19.630Z,8.50
2018-01-06T06:54:47.184Z,8.50
2018-01-06T06:57:14.815Z,8.50
2018-01-06T06:59:43.199Z,8.40
2018-01-06T07:02:10.792Z,8.50
2018-01-06T07:04:38.344Z,8.40
2018-01-06T07:07:06.347Z,8.50
2018-01-06T07:09:33.944Z,8.60
2018-01-06T07:12:01.515Z,8.70
2018-01-06T07:14:29.692Z,8.70
2018-01-06T07:16:57.340Z,8.80
2018-01-06T07:19:24.908Z,8.80
2018-01-06T07:21:52.494Z,8.90
2018-01-06T07:24:20.304Z,8.90
2018-01-06T07:26:47.913Z,9.00
2018-01-06T07:29:15.472Z,9.00
2018-01-06T07:31:55.936Z,9.00
2018-01-06T07:34:23.673Z,9.10
2018-01-06T07:36:51.259Z,9.10
2018-01-06T07:39:18.812Z,9.10
2018-01-06T07:41:46.394Z,9.10
2018-01-06T07:44:14.726Z,9.20
2018-01-06T07:46:42.328Z,9.20
2018-01-06T07:49:10.640Z,9.20
2018-01-06T07:51:38.172Z,9.20
2018-01-06T07:54:05.762Z,9.30
2018-01-06T07:56:33.414Z,9.30
2018-01-06T07:59:00.947Z,9.40
2018-01-06T08:01:28.497Z,9.40
2018-01-06T08:03:56.091Z,9.40
2018-01-06T08:06:23.625Z,9.40
2018-01-06T08:08:51.206Z,9.40
2018-01-06T08:11:18.763Z,9.50
2018-01-06T08:13:47.202Z,9.50
2018-01-06T08:16:14.757Z,9.50
2018-01-06T08:18:42.342Z,9.60
2018-01-06T08:21:09.960Z,9.60
2018-01-06T08:23:37.489Z,9.70
2018-01-06T08:26:05.058Z,9.70
2018-01-06T08:28:32.634Z,9.70
2018-01-06T08:31:00.217Z,9.70
2018-01-06T08:33:27.853Z,9.70
2018-01-06T08:35:55.416Z,9.80
2018-01-06T08:38:22.991Z,9.80
2018-01-06T08:40:50.576Z,9.90
2018-01-06T08:43:18.149Z,9.90
2018-01-06T08:45:46.490Z,9.90
2018-01-06T08:48:14.051Z,9.90
2018-01-06T08:50:41.625Z,9.90
2018-01-06T08:53:09.189Z,10.00
2018-01-06T08:55:36.764Z,10.00
2018-01-06T08:58:04.341Z,10.00
2018-01-06T09:00:31.884Z,10.10
2018-01-06T09:02:59.400Z,10.10
2018-01-06T09:05:26.985Z,10.10
2018-01-06T09:07:54.566Z,10.10
2018-01-06T09:10:23.001Z,10.20
2018-01-06T09:12:50.574Z,10.20
2018-01-06T09:15:18.181Z,10.20
2018-01-06T09:17:45.723Z,10.20
2018-01-06T09:20:13.755Z,10.10
2018-01-06T09:22:42.023Z,10.20
2018-01-06T09:25:09.598Z,10.20
2018-01-06T09:27:37.171Z,10.20
2018-01-06T09:30:04.815Z,10.20
2018-01-06T09:32:32.378Z,10.30
2018-01-06T09:35:00.873Z,10.30
2018-01-06T09:37:28.432Z,10.30
2018-01-06T09:39:56.939Z,10.20
2018-01-06T09:42:25.772Z,10.30
2018-01-06T09:44:53.903Z,10.20
2018-01-06T09:47:23.192Z,10.20
2018-01-06T09:49:50.741Z,10.20
2018-01-06T09:52:18.296Z,10.20
2018-01-06T09:54:45.941Z,10.20
2018-01-06T09:57:14.507Z,10.30
2018-01-06T09:59:42.025Z,10.30
2018-01-06T10:02:09.575Z,10.30
2018-01-06T10:04:37.159Z,10.40
2018-01-06T10:07:04.765Z,10.40
2018-01-06T10:09:32.324Z,10.40
2018-01-06T10:12:00.653Z,10.50
2018-01-06T10:14:29.005Z,10.50
2018-01-06T10:16:56.718Z,10.50
2018-01-06T10:19:24.320Z,10.60
2018-01-06T10:21:52.004Z,10.50
2018-01-06T10:24:19.537Z,10.60
2018-01-06T10:26:47.151Z,10.60
2018-01-06T10:29:14.725Z,10.70
2018-01-06T10:31:42.303Z,10.70
2018-01-06T10:34:09.976Z,10.70
2018-01-06T10:36:37.543Z,10.70
2018-01-06T10:39:05.126Z,10.70
2018-01-06T10:41:32.663Z,10.70
2018-01-06T10:44:00.276Z,10.70
2018-01-06T10:46:27.855Z,10.80
2018-01-06T10:48:55.519Z,10.80
2018-01-06T10:51:23.056Z,10.80
2018-01-06T10:53:50.647Z,10.80
2018-01-06T10:56:18.195Z,10.90
2018-01-06T10:58:46.480Z,10.90
2018-01-06T11:01:20.459Z,10.90
2018-01-06T11:03:47.998Z,10.90
2018-01-06T11:06:15.576Z,10.90
2018-01-06T11:08:43.882Z,11.00
2018-01-06T11:11:11.424Z,11.00
2018-01-06T11:13:38.996Z,11.00
2018-01-06T11:16:06.588Z,11.00
2018-01-06T11:18:34.147Z,11.10
2018-01-06T11:21:01.686Z,11.10
2018-01-06T11:23:29.270Z,11.10
2018-01-06T11:25:57.095Z,11.20
2018-01-06T11:28:24.700Z,11.20
2018-01-06T11:30:52.751Z,11.20
2018-01-06T11:33:20.371Z,11.30
2018-01-06T11:35:47.952Z,11.30
2018-01-06T11:38:15.485Z,11.30
2018-01-06T11:40:43.054Z,11.30
2018-01-06T11:43:10.664Z,11.30
2018-01-06T11:45:38.267Z,11.30
2018-01-06T11:48:06.644Z,11.20
2018-01-06T11:50:34.180Z,11.20
2018-01-06T11:53:01.796Z,11.20
2018-01-06T11:55:29.377Z,11.20
2018-01-06T11:57:56.974Z,11.20
2018-01-06T12:00:24.513Z,11.10
2018-01-06T12:02:52.164Z,11.10
2018-01-06T12:05:20.333Z,11.10
2018-01-06T12:07:49.602Z,11.10
2018-01-06T12:10:18.776Z,11.10
2018-01-06T12:12:49.453Z,11.10
2018-01-06T12:15:18.308Z,11.10
2018-01-06T12:17:46.223Z,11.10
2018-01-06T12:20:14.231Z,11.10
2018-01-06T12:22:43.415Z,11.10
2018-01-06T12:25:11.560Z,11.10
2018-01-06T12:27:39.975Z,11.10
2018-01-06T12:30:09.768Z,11.10
2018-01-06T12:32:38.085Z,11.10
2018-01-06T12:35:07.415Z,11.00
2018-01-06T12:37:36.834Z,11.00
2018-01-06T12:40:05.559Z,11.00
2018-01-06T12:42:33.944Z,11.10
2018-01-06T12:45:05.338Z,10.90
2018-01-06T12:47:33.372Z,11.00
2018-01-06T12:50:01.556Z,10.90
2018-01-06T12:52:29.719Z,10.90
2018-01-06T12:54:58.566Z,10.90
2018-01-06T12:57:26.166Z,10.90
2018-01-06T12:59:54.328Z,10.90
2018-01-06T13:02:21.933Z,10.90
2018-01-06T13:04:49.527Z,10.90
2018-01-06T13:07:17.098Z,10.90
2018-01-06T13:09:44.765Z,10.90
2018-01-06T13:12:12.341Z,10.90
2018-01-06T13:14:39.905Z,10.90
2018-01-06T13:17:08.290Z,10.80
2018-01-06T13:19:35.890Z,10.80
2018-01-06T13:22:03.505Z,10.80
2018-01-06T13:24:31.878Z,10.80
2018-01-06T13:26:59.462Z,10.80
2018-01-06T13:29:28.460Z,10.80
2018-01-06T13:31:56.025Z,10.80
2018-01-06T13:34:23.568Z,10.80
2018-01-06T13:36:51.957Z,10.80
2018-01-06T13:39:19.515Z,10.80
2018-01-06T13:41:47.117Z,10.80
2018-01-06T13:44:14.712Z,10.80
2018-01-06T13:46:42.329Z,10.80
2018-01-06T13:49:09.977Z,10.80
2018-01-06T13:51:37.535Z,10.80
2018-01-06T13:54:05.086Z,10.80
2018-01-06T13:56:32.709Z,10.80
2018-01-06T13:59:00.306Z,10.80
2018-01-06T14:01:27.836Z,10.80
2018-01-06T14:03:55.688Z,10.80
2018-01-06T14:06:23.308Z,10.80
2018-01-06T14:08:50.884Z,10.80
2018-01-06T14:11:18.508Z,10.80
2018-01-06T14:13:46.897Z,10.80
2018-01-06T14:16:14.469Z,10.80
2018-01-06T14:18:42.053Z,10.80
2018-01-06T14:21:09.651Z,10.80
2018-01-06T14:23:37.380Z,10.80
2018-01-06T14:26:04.945Z,10.80
2018-01-06T14:28:32.569Z,10.80
2018-01-06T14:31:00.193Z,10.90
2018-01-06T14:33:28.516Z,10.90
2018-01-06T14:35:56.095Z,10.90
2018-01-06T14:38:23.683Z,10.80
2018-01-06T14:40:51.289Z,10.90
2018-01-06T14:43:18.838Z,10.80
2018-01-06T14:45:46.414Z,10.80
2018-01-06T14:48:14.070Z,10.80
2018-01-06T14:50:42.090Z,10.90
2018-01-06T14:53:10.004Z,10.80
2018-01-06T14:55:38.687Z,10.80
2018-01-06T14:58:07.172Z,10.80
2018-01-06T15:00:34.707Z,10.80
2018-01-06T15:03:02.362Z,10.80
2018-01-06T15:05:30.689Z,10.70
2018-01-06T15:07:58.217Z,10.60
2018-01-06T15:10:26.565Z,10.60
2018-01-06T15:12:54.098Z,10.60
2018-01-06T15:15:22.261Z,10.70
2018-01-06T15:17:49.863Z,10.60
2018-01-06T15:20:17.425Z,10.40
2018-01-06T15:22:45.020Z,10.40
2018-01-06T15:25:12.596Z,10.40
2018-01-06T15:27:40.148Z,10.30
2018-01-06T15:30:08.344Z,10.30
2018-01-06T15:32:35.897Z,10.30
2018-01-06T15:35:04.230Z,10.10
2018-01-06T15:37:32.563Z,10.00
2018-01-06T15:40:00.165Z,10.00
2018-01-06T15:42:28.506Z,9.90
2018-01-06T15:44:56.138Z,9.90
2018-01-06T15:47:23.726Z,10.00
2018-01-06T15:49:51.279Z,10.00
2018-01-06T15:52:18.887Z,9.90
2018-01-06T15:54:47.276Z,10.00
2018-01-06T15:57:14.810Z,10.00
2018-01-06T15:59:42.415Z,10.10
2018-01-06T16:02:09.964Z,10.10
2018-01-06T16:04:37.606Z,10.20
2018-01-06T16:07:05.178Z,10.20
2018-01-06T16:09:33.469Z,9.90
2018-01-06T16:12:01.079Z,9.90
2018-01-06T16:14:29.239Z,9.80
2018-01-06T16:16:56.917Z,9.70
2018-01-06T16:19:24.480Z,9.40
2018-01-06T16:21:53.332Z,9.50
2018-01-06T16:24:22.514Z,9.60
2018-01-06T16:26:50.625Z,9.70
2018-01-06T16:29:18.215Z,9.70
2018-01-06T16:31:45.811Z,9.80
2018-01-06T16:34:13.353Z,9.80
2018-01-06T16:36:40.913Z,9.90
2018-01-06T16:39:09.340Z,9.70
2018-01-06T16:41:36.943Z,9.70
2018-01-06T16:44:05.300Z,9.70
2018-01-06T16:46:32.849Z,9.70
2018-01-06T16:49:00.411Z,9.60
2018-01-06T16:51:27.956Z,9.60
2018-01-06T16:53:55.624Z,9.60
2018-01-06T16:56:23.180Z,9.60
2018-01-06T16:58:51.497Z,9.70
2018-01-06T17:01:19.826Z,9.80
2018-01-06T17:03:47.388Z,9.70
2018-01-06T17:06:14.982Z,9.60
2018-01-06T17:08:42.554Z,9.50
2018-01-06T17:11:10.892Z,9.50
2018-01-06T17:13:38.434Z,9.50
2018-01-06T17:16:06.013Z,9.40
2018-01-06T17:18:34.470Z,9.20
2018-01-06T17:21:02.084Z,9.10
2018-01-06T17:23:29.656Z,9.20
2018-01-06T17:25:57.289Z,9.20
2018-01-06T17:28:24.888Z,9.30
2018-01-06T17:30:53.211Z,9.40
2018-01-06T17:33:21.583Z,9.40
2018-01-06T17:35:49.184Z,9.30
2018-01-06T17:38:16.834Z,9.30
2018-01-06T17:40:44.391Z,9.30
2018-01-06T18:00:28.214Z,9.80
2018-01-06T18:02:56.340Z,9.80
2018-01-06T18:05:24.016Z,9.90
2018-01-06T18:07:51.636Z,9.90
2018-01-06T18:10:19.250Z,9.80
2018-01-06T18:12:46.809Z,9.80
2018-01-06T18:15:14.984Z,9.90
2018-01-06T18:17:42.591Z,9.90
2018-01-06T18:20:10.958Z,10.00
2018-01-06T18:22:38.543Z,9.80
2018-01-06T18:25:07.006Z,9.70
2018-01-06T18:27:34.605Z,9.80
2018-01-06T18:30:02.179Z,9.90
2018-01-06T18:32:30.519Z,10.00
2018-01-06T18:34:58.082Z,9.90
2018-01-06T18:37:25.727Z,10.00
2018-01-06T18:39:53.326Z,10.00
2018-01-06T18:42:21.366Z,10.10
2018-01-06T18:44:48.927Z,10.10
2018-01-06T18:47:16.455Z,10.20
2018-01-06T18:49:44.048Z,10.30
2018-01-06T18:52:11.644Z,10.30
2018-01-06T18:54:39.968Z,10.40
2018-01-06T18:57:08.314Z,10.40
2018-01-06T18:59:35.957Z,10.40
2018-01-06T19:02:03.509Z,10.40
2018-01-06T19:04:31.852Z,10.50
2018-01-06T19:07:00.062Z,10.50
2018-01-06T19:09:27.659Z,10.60
2018-01-06T19:11:55.874Z,10.60
2018-01-06T19:14:23.475Z,10.60
2018-01-06T19:16:51.171Z,10.60
2018-01-06T19:19:18.934Z,10.60
2018-01-06T19:21:46.529Z,10.60
2018-01-06T19:24:14.156Z,10.60
2018-01-06T19:26:41.734Z,10.60
2018-01-06T19:29:09.504Z,10.60
2018-01-06T19:31:37.105Z,10.60
2018-01-06T19:34:04.672Z,10.60
2018-01-06T19:36:32.200Z,10.60
2018-01-06T19:38:59.779Z,10.70
2018-01-06T19:41:27.339Z,10.70
2018-01-06T19:43:55.682Z,10.70
2018-01-06T19:46:23.292Z,10.70
2018-01-06T19:48:50.872Z,10.70
2018-01-06T19:51:19.314Z,10.70
2018-01-06T19:53:46.908Z,10.70
2018-01-06T19:56:14.460Z,10.70
2018-01-06T19:58:42.103Z,10.70
2018-01-06T20:01:10.431Z,10.80
2018-01-06T20:03:37.978Z,10.80
2018-01-06T20:06:05.570Z,10.70
2018-01-06T20:08:33.118Z,10.70
2018-01-06T20:11:00.800Z,10.70
2018-01-06T20:13:28.339Z,10.80
2018-01-06T20:15:55.957Z,10.80
2018-01-06T20:18:24.588Z,10.80
2018-01-06T20:20:52.148Z,10.80
2018-01-06T20:23:19.742Z,10.80
2018-01-06T20:25:47.324Z,10.80
2018-01-06T20:28:15.197Z,10.70
2018-01-06T20:30:42.768Z,10.70
2018-01-06T20:33:10.359Z,10.80
2018-01-06T20:35:38.433Z,10.80
2018-01-06T20:38:06.051Z,10.80
2018-01-06T20:40:33.761Z,10.80
2018-01-06T20:43:01.442Z,10.70
2018-01-06T20:45:29.177Z,10.70
2018-01-06T20:47:56.844Z,10.80
2018-01-06T20:50:24.459Z,10.70
2018-01-06T20:52:52.050Z,10.70
2018-01-06T20:55:19.861Z,10.60
2018-01-06T20:57:47.665Z,10.60
2018-01-06T21:00:15.999Z,10.60
2018-01-06T21:02:44.485Z,10.20
2018-01-06T21:05:13.025Z,10.20
2018-01-06T21:07:40.640Z,10.20
2018-01-06T21:10:08.985Z,10.10
2018-01-06T21:12:36.579Z,10.10
2018-01-06T21:15:05.072Z,9.90
2018-01-06T21:17:33.588Z,9.80
2018-01-06T21:20:01.332Z,9.70
2018-01-06T21:22:28.957Z,9.80
2018-01-06T21:24:56.569Z,9.60
2018-01-06T21:27:24.383Z,9.30
2018-01-06T21:29:51.951Z,9.30
2018-01-06T21:32:19.573Z,9.30
2018-01-06T21:34:47.124Z,9.20
2018-01-06T21:37:14.706Z,9.20
2018-01-06T21:39:42.243Z,9.10
2018-01-06T21:42:09.894Z,9.10
2018-01-06T21:44:37.476Z,9.10
2018-01-06T21:47:05.127Z,9.20
2018-01-06T21:49:32.740Z,9.30
2018-01-06T21:52:01.045Z,9.20
2018-01-06T21:54:28.628Z,9.10
2018-01-06T21:56:56.178Z,9.10
2018-01-06T21:59:23.751Z,9.10
2018-01-06T22:01:51.355Z,9.10
2018-01-06T22:04:19.735Z,9.20
2018-01-06T22:06:47.302Z,9.20
2018-01-06T22:09:15.617Z,9.30
2018-01-06T22:11:43.231Z,9.30
2018-01-06T22:14:10.802Z,9.30
2018-01-06T22:16:38.431Z,9.30
2018-01-06T22:19:05.967Z,9.40
2018-01-06T22:21:33.527Z,9.30
2018-01-06T22:24:01.066Z,9.30
2018-01-06T22:26:28.590Z,9.40
2018-01-06T22:28:56.179Z,9.30
2018-01-06T22:31:24.224Z,9.40
2018-01-06T22:33:51.743Z,9.50
2018-01-06T22:36:19.318Z,9.40
2018-01-06T22:38:46.895Z,9.50
2018-01-06T22:41:15.247Z,9.60
2018-01-06T22:43:42.781Z,9.50
2018-01-06T22:46:10.349Z,9.40
2018-01-06T22:48:37.968Z,9.30
2018-01-06T22:51:06.591Z,9.40
2018-01-06T22:53:34.257Z,9.40
2018-01-06T22:56:01.842Z,9.40
2018-01-06T22:58:29.413Z,9.40
2018-01-06T23:00:57.149Z,9.50
2018-01-06T23:03:24.702Z,9.60
2018-01-06T23:05:52.316Z,9.70
2018-01-06T23:08:20.636Z,9.70
2018-01-06T23:10:48.245Z,9.70
2018-01-06T23:13:15.895Z,9.70
2018-01-06T23:15:43.494Z,9.80
2018-01-06T23:18:11.065Z,9.60
2018-01-06T23:20:38.712Z,9.30
2018-01-06T23:23:07.111Z,9.20
2018-01-06T23:25:34.669Z,9.10
2018-01-06T23:28:03.588Z,9.10
2018-01-06T23:30:33.496Z,9.00
2018-01-06T23:33:02.633Z,8.80
2018-01-06T23:35:30.251Z,8.80
2018-01-06T23:37:57.838Z,8.70
2018-01-06T23:40:25.524Z,8.80
2018-01-06T23:42:55.537Z,8.60
2018-01-06T23:45:23.476Z,8.60
2018-01-06T23:47:55.146Z,8.40
2018-01-06T23:50:24.388Z,8.40
2018-01-06T23:52:53.695Z,8.30
2018-01-06T23:55:23.358Z,8.40
2018-01-06T23:57:52.944Z,8.40
